23:56
Airports
Links
Donate
Help keep this website running!
PayPal
Bitcoin
METAR
ENDU 232350Z VRB02KT 9999 FEW040 M27/M30 Q1002 RMK WIND 1100FT 12011KT WIND 2200FT 10012KT
Current Weather Conditions at ENDU
VFR 23:50:00 23-01-18
Altimeter:29.59 hg
Temp:-27.0°c -17°f
Dew point:-30.0°c -22°f
Wind:2 knots, 2.3 mph, 1 m/s,
Variable direction
Visibility:6.21 statute miles
4000(FEW) A few
Past METAR reports
VFR 22:50:00 23-01-18
Altimeter:29.62 hg
Temp:-27.0°c -17°f
Dew point:-29.0°c -20°f
Wind:2 knots, 2.3 mph, 1 m/s,
Variable direction
Visibility:6.21 statute miles
4000(FEW) A few
ENDU 232250Z VRB02KT 9999 FEW040 M27/M29 Q1003 RMK WIND 1100FT 11007KT WIND 2200FT 11012KT
VFR 21:50:00 23-01-18
Altimeter:29.65 hg
Temp:-26.0°c -15°f
Dew point:-29.0°c -20°f
Wind:3 knots, 3.5 mph, 2 m/s, from 290°
Visibility:6.21 statute miles
4000(FEW) A few
ENDU 232150Z 29003KT 9999 FEW040 M26/M29 Q1004 RMK WIND 1100FT 13008KT WIND 2200FT 11012KT
VFR 20:50:00 23-01-18
Altimeter:29.65 hg
Temp:-27.0°c -17°f
Dew point:-30.0°c -22°f
Wind:2 knots, 2.3 mph, 1 m/s,
Variable direction
Visibility:6.21 statute miles
4000(FEW) A few
ENDU 232050Z VRB02KT 9999 FEW040 M27/M30 Q1004 RMK WIND 1100FT 15007KT WIND 2200FT 11011KT
VFR 19:50:00 23-01-18
Altimeter:29.68 hg
Temp:-28.0°c -18°f
Dew point:-31.0°c -24°f
Wind:0 knots, 0 mph, 0 m/s,
Variable direction
Visibility:6.21 statute miles
(CAVOK)
ENDU 231950Z 00000KT CAVOK M28/M31 Q1005 RMK WIND 1100FT 15006KT WIND 2200FT 12012KT
VFR 18:50:00 23-01-18
Altimeter:29.70 hg
Temp:-27.0°c -17°f
Dew point:-31.0°c -24°f
Wind:2 knots, 2.3 mph, 1 m/s,
Variable direction
Visibility:6.21 statute miles
(CAVOK)
ENDU 231850Z VRB02KT CAVOK M27/M31 Q1006 RMK WIND 1100FT 13008KT WIND 2200FT 13016KT
TAF
TAF ENDU 2400/2424 VRB05KT CAVOK TEMPO 2412/2424 10010G20KT
Forecast at ENDU
00:00 24-01-18 to 00:00 25-01-18
NSW
Wind:5 Knots from 360°
Visibility:6.21 statute miles
NSC
TEMPO 12:00 24-01-18 to 00:00 25-01-18
Wind:10 Knots from 100°